< < Back
Terminal Aerodrome Forecast


Current Version              Previous Versions:   1  2  3  4  5  6  7  8  9  

Terminal Aerodrome Forecast

700
FTUS42 KGSP 301029 AAB
TAFAND
TAF AMD
KAND 301029Z 3010/3106 18005KT P6SM -SHRA SCT025 OVC045
      TEMPO 3010/3014 4SM -TSRA BR OVC025CB
     FM301400 25008KT P6SM OVC015
     FM301700 26010G18KT P6SM SCT050
     FM302200 30003KT P6SM FEW250=



Latest METAR

157
SAUS70 KWBC 310300 RRC
MTRAND
METAR KAND 310256Z AUTO 28005KT 10SM CLR 14/01 A3008 RMK AO2 SLP185
T01440006 51024


USA.gov is the U.S. government's official web portal to all federal, state and local government web resources and services.